This is the latest recevied weather packets stored in our database for station/object LRBS. If no packets are shown the sender has not sent any weather packets the latest 10 day(s).
| Time | Temp. | Humidity | Pressure | Rain* | Wind** | Luminosity | Snow |
|---|---|---|---|---|---|---|---|
| 1788463996 | 22.22° C | 57% | 1016 hPa | - | - | - | - |
| 1788446894 | 30° C | 35% | 1015 hPa | - | - | - | - |
| 1788445095 | 30° C | 35% | 1016 hPa | - | - | - | - |
| 1788444194 | 30° C | 35% | 1016 hPa | - | - | - | - |
| 1788441494 | 30° C | 38% | 1016 hPa | - | - | - | - |
| 1788440595 | 30° C | 38% | 1016 hPa | - | - | - | - |
| 1788438806 | 28.89° C | 43% | 1016 hPa | - | - | - | - |
| 1788437894 | 30° C | 40% | 1016 hPa | - | - | - | - |
| 1788434296 | 27.78° C | 45% | 1017 hPa | - | - | - | - |
| 1788433394 | 27.78° C | 45% | 1017 hPa | - | - | - | - |
| 1788431594 | 27.78° C | 48% | 1017 hPa | - | - | - | - |
| 1788430695 | 27.78° C | 48% | 1017 hPa | - | - | - | - |
| 1788429795 | 27.78° C | 48% | 1017 hPa | - | - | - | - |
| 1788428894 | 27.22° C | 51% | 1018 hPa | - | - | - | - |
| 1788427995 | 27.22° C | 51% | 1018 hPa | - | - | - | - |
| 1788427111 | 27.22° C | 51% | 1018 hPa | - | - | - | - |
| 1788424394 | 26.11° C | 54% | 1018 hPa | - | - | - | - |
| 1788423495 | 25° C | 57% | 1018 hPa | - | - | - | - |
| 1788422594 | 25° C | 57% | 1018 hPa | - | - | - | - |
| 1788421696 | 23.89° C | 61% | 1018 hPa | - | - | - | - |
| 1788420794 | 23.89° C | 61% | 1018 hPa | - | - | - | - |
| 1788419894 | 23.89° C | 65% | 1018 hPa | - | - | - | - |
| 1788418994 | 23.89° C | 65% | 1018 hPa | - | - | - | - |
| 1788418094 | 22.78° C | 65% | 1018 hPa | - | - | - | - |
| 1788417195 | 22.78° C | 65% | 1018 hPa | - | - | - | - |
* Rain since midnight (hover to see other rain measurements)
** Current wind speed in m/s (hover to see current wind gust speed)